Rocky Comfort, MO (64861)

10:07 PM CDT on April 25, 2017 (GMT -0500)
Farm Road 2100 | | Change Station
Active Advisory: Severe Thunderstorm Watch

Elev 1335 ft 36.79 °N, 94.07 °W | Updated 18 seconds ago

Mostly Cloudy
Mostly Cloudy
65.7 °F
Feels Like 65.7 °F
N
2.0
Wind Variable Wind from ESE
Gusts 2.0 mph

Today
High -- | Low -- °F
--% Chance of Precip.
Yesterday
High -- | Low -- °F
Precip. -- in
Pressure 29.49 in
Visibility 10.0 miles
Clouds Scattered Clouds 4200 ft
Scattered Clouds 5000 ft
Overcast 6000 ft
Dew Point 61 °F
Humidity 84%
Rainfall 0.00 in
Snow Depth Not available.
6:29 AM 7:59 PM
Waning Crescent, 0% visible
METAR KHFJ 260250Z AUTO 00000KT 10SM SCT042 SCT050 OVC060 19/15 A2949 RMK AO2
Pressure 29.49 in
Visibility 10.0 miles
Clouds Scattered Clouds 4200 ft
Scattered Clouds 5000 ft
Overcast 6000 ft
Dew Point 61 °F
Humidity 84%
Rainfall 0.00 in
Snow Depth Not available.
6:29 AM 7:59 PM
Waning Crescent, 0% visible
METAR KHFJ 260250Z AUTO 00000KT 10SM SCT042 SCT050 OVC060 19/15 A2949 RMK AO2

Get Your Daily Forecast Email!

Thanks for signing up!

Be on the lookout for a verification email in your inbox.

You'll start receiving severe weather alerts in your inbox..

×

10-Day Weather Forecast

Almanac

Astronomy

Apr. 25, 2017 Rise Set
Actual Time
Civil Twilight
Nautical Twilight
Astronomical Twilight
Moon
Length of Visible Light
Length of Day
Tomorrow will be .
, % of the Moon is Illuminated

Today's Extremes

State Highs State Lows

Community

WunderPhotos

WunderBlog® & News

Nearby

Air Quality

  Air Quality AQ Index Pollutant
Not available.

Snow Depth

Station Depth Elevation

Earthquake Activity

City Distance Mag. Time & Date
Minimum magnitude displayed is 2.5.

Coastal Water Temperatures

Place Temperature

Stations

Nearby Weather Stations

Station Location Temp. Windchill Dew Point Humidity Wind Precip. Elev Updated Type
                   

Watches & Warnings

Severe Thunderstorm Watch
Issued: 10:03 PM CDT Apr. 25, 2017 – National Weather Service

Severe Thunderstorm Watch 159 remains in effect until 200 am CDT

MO
. Missouri counties included are

Barton Bates Cass
Jasper McDonald Newton
Vernon